sensor_id;sensor_type;location;lat;lon;timestamp;P1;durP1;ratioP1;P2;durP2;ratioP2
8183;SDS011;4133;48.752;9.088;2023-01-24T00:00:39;21.37;;;13.87;;
8183;SDS011;4133;48.752;9.088;2023-01-24T00:03:05;18.33;;;12.10;;
8183;SDS011;4133;48.752;9.088;2023-01-24T00:05:36;19.70;;;12.60;;
8183;SDS011;4133;48.752;9.088;2023-01-24T00:08:02;18.70;;;12.93;;
8183;SDS011;4133;48.752;9.088;2023-01-24T00:10:28;18.57;;;12.43;;
8183;SDS011;4133;48.752;9.088;2023-01-24T00:12:54;19.37;;;13.47;;
8183;SDS011;4133;48.752;9.088;2023-01-24T00:15:20;18.53;;;12.20;;
8183;SDS011;4133;48.752;9.088;2023-01-24T00:17:46;19.73;;;12.93;;
8183;SDS011;4133;48.752;9.088;2023-01-24T00:20:12;18.37;;;12.60;;
8183;SDS011;4133;48.752;9.088;2023-01-24T00:22:38;18.57;;;12.93;;
8183;SDS011;4133;48.752;9.088;2023-01-24T00:25:04;18.47;;;12.17;;
8183;SDS011;4133;48.752;9.088;2023-01-24T00:27:30;20.30;;;13.33;;
8183;SDS011;4133;48.752;9.088;2023-01-24T00:29:57;19.87;;;12.70;;
8183;SDS011;4133;48.752;9.088;2023-01-24T00:32:23;20.57;;;13.17;;
8183;SDS011;4133;48.752;9.088;2023-01-24T00:34:49;19.37;;;12.97;;
8183;SDS011;4133;48.752;9.088;2023-01-24T00:37:17;18.73;;;13.07;;
8183;SDS011;4133;48.752;9.088;2023-01-24T00:39:43;20.87;;;13.37;;
8183;SDS011;4133;48.752;9.088;2023-01-24T00:42:09;19.00;;;13.03;;
8183;SDS011;4133;48.752;9.088;2023-01-24T00:44:35;20.13;;;13.30;;
8183;SDS011;4133;48.752;9.088;2023-01-24T00:47:01;18.80;;;12.97;;
8183;SDS011;4133;48.752;9.088;2023-01-24T00:49:27;20.57;;;13.23;;
8183;SDS011;4133;48.752;9.088;2023-01-24T00:51:52;19.33;;;12.93;;
8183;SDS011;4133;48.752;9.088;2023-01-24T00:54:19;17.07;;;11.87;;
8183;SDS011;4133;48.752;9.088;2023-01-24T00:56:45;18.30;;;12.57;;
8183;SDS011;4133;48.752;9.088;2023-01-24T00:59:11;19.73;;;12.33;;
8183;SDS011;4133;48.752;9.088;2023-01-24T01:01:36;20.17;;;12.80;;
8183;SDS011;4133;48.752;9.088;2023-01-24T01:04:03;17.30;;;11.77;;
8183;SDS011;4133;48.752;9.088;2023-01-24T01:06:29;15.63;;;11.67;;
8183;SDS011;4133;48.752;9.088;2023-01-24T01:08:55;16.80;;;11.77;;
8183;SDS011;4133;48.752;9.088;2023-01-24T01:11:21;15.87;;;11.07;;
8183;SDS011;4133;48.752;9.088;2023-01-24T01:13:47;16.43;;;11.70;;
8183;SDS011;4133;48.752;9.088;2023-01-24T01:16:14;17.57;;;11.57;;
8183;SDS011;4133;48.752;9.088;2023-01-24T01:18:41;16.37;;;11.70;;
8183;SDS011;4133;48.752;9.088;2023-01-24T01:21:09;16.67;;;11.60;;
8183;SDS011;4133;48.752;9.088;2023-01-24T01:23:36;15.37;;;11.10;;
8183;SDS011;4133;48.752;9.088;2023-01-24T01:26:04;17.43;;;11.70;;
8183;SDS011;4133;48.752;9.088;2023-01-24T01:28:30;16.93;;;11.87;;
8183;SDS011;4133;48.752;9.088;2023-01-24T01:30:56;17.83;;;12.07;;
8183;SDS011;4133;48.752;9.088;2023-01-24T01:33:22;16.83;;;11.93;;
8183;SDS011;4133;48.752;9.088;2023-01-24T01:35:49;17.03;;;12.10;;
8183;SDS011;4133;48.752;9.088;2023-01-24T01:38:31;17.33;;;11.43;;
8183;SDS011;4133;48.752;9.088;2023-01-24T01:40:57;15.97;;;11.50;;
8183;SDS011;4133;48.752;9.088;2023-01-24T01:43:25;17.73;;;11.63;;
8183;SDS011;4133;48.752;9.088;2023-01-24T01:45:51;16.53;;;11.97;;
8183;SDS011;4133;48.752;9.088;2023-01-24T01:53:47;16.33;;;11.57;;
8183;SDS011;4133;48.752;9.088;2023-01-24T01:56:21;16.63;;;11.33;;
8183;SDS011;4133;48.752;9.088;2023-01-24T01:58:48;18.90;;;11.70;;
8183;SDS011;4133;48.752;9.088;2023-01-24T02:01:14;17.90;;;11.57;;
8183;SDS011;4133;48.752;9.088;2023-01-24T02:03:42;16.47;;;11.30;;
8183;SDS011;4133;48.752;9.088;2023-01-24T02:08:53;17.43;;;11.70;;
8183;SDS011;4133;48.752;9.088;2023-01-24T02:11:19;18.20;;;11.07;;
8183;SDS011;4133;48.752;9.088;2023-01-24T02:14:04;19.47;;;11.70;;
8183;SDS011;4133;48.752;9.088;2023-01-24T02:16:48;15.80;;;11.20;;
8183;SDS011;4133;48.752;9.088;2023-01-24T02:22:31;16.67;;;11.13;;
8183;SDS011;4133;48.752;9.088;2023-01-24T02:25:33;17.97;;;11.97;;
8183;SDS011;4133;48.752;9.088;2023-01-24T02:27:50;17.53;;;11.73;;
8183;SDS011;4133;48.752;9.088;2023-01-24T02:30:17;17.47;;;11.80;;
8183;SDS011;4133;48.752;9.088;2023-01-24T02:32:43;16.87;;;11.90;;
8183;SDS011;4133;48.752;9.088;2023-01-24T02:35:28;16.50;;;11.93;;
8183;SDS011;4133;48.752;9.088;2023-01-24T02:40:43;17.00;;;11.23;;
8183;SDS011;4133;48.752;9.088;2023-01-24T02:43:09;18.03;;;11.60;;
8183;SDS011;4133;48.752;9.088;2023-01-24T02:45:36;16.07;;;11.67;;
8183;SDS011;4133;48.752;9.088;2023-01-24T02:48:02;17.80;;;11.97;;
8183;SDS011;4133;48.752;9.088;2023-01-24T02:50:29;17.20;;;12.10;;
8183;SDS011;4133;48.752;9.088;2023-01-24T02:53:18;20.70;;;12.20;;
8183;SDS011;4133;48.752;9.088;2023-01-24T02:56:04;18.80;;;12.67;;
8183;SDS011;4133;48.752;9.088;2023-01-24T02:59:06;16.53;;;11.33;;
8183;SDS011;4133;48.752;9.088;2023-01-24T03:01:32;17.27;;;11.53;;
8183;SDS011;4133;48.752;9.088;2023-01-24T03:03:58;17.10;;;11.93;;
8183;SDS011;4133;48.752;9.088;2023-01-24T03:06:24;16.47;;;12.27;;
8183;SDS011;4133;48.752;9.088;2023-01-24T03:08:50;19.10;;;12.00;;
8183;SDS011;4133;48.752;9.088;2023-01-24T03:11:16;17.57;;;12.27;;
8183;SDS011;4133;48.752;9.088;2023-01-24T03:13:42;15.70;;;11.17;;
8183;SDS011;4133;48.752;9.088;2023-01-24T03:16:26;16.00;;;10.90;;
8183;SDS011;4133;48.752;9.088;2023-01-24T03:19:11;17.07;;;11.70;;
8183;SDS011;4133;48.752;9.088;2023-01-24T03:21:55;18.73;;;11.97;;
8183;SDS011;4133;48.752;9.088;2023-01-24T03:24:40;17.13;;;11.57;;
8183;SDS011;4133;48.752;9.088;2023-01-24T03:27:25;19.10;;;11.83;;
8183;SDS011;4133;48.752;9.088;2023-01-24T03:30:09;19.93;;;12.57;;
8183;SDS011;4133;48.752;9.088;2023-01-24T03:32:58;17.93;;;12.17;;
8183;SDS011;4133;48.752;9.088;2023-01-24T03:35:43;19.53;;;12.27;;
8183;SDS011;4133;48.752;9.088;2023-01-24T03:43:52;19.67;;;11.90;;
8183;SDS011;4133;48.752;9.088;2023-01-24T03:46:17;17.93;;;12.27;;
8183;SDS011;4133;48.752;9.088;2023-01-24T03:48:43;19.00;;;12.13;;
8183;SDS011;4133;48.752;9.088;2023-01-24T03:51:09;18.83;;;12.07;;
8183;SDS011;4133;48.752;9.088;2023-01-24T03:53:54;19.83;;;12.53;;
8183;SDS011;4133;48.752;9.088;2023-01-24T03:56:20;20.87;;;13.27;;
8183;SDS011;4133;48.752;9.088;2023-01-24T03:58:46;20.27;;;12.80;;
8183;SDS011;4133;48.752;9.088;2023-01-24T04:01:12;19.20;;;13.27;;
8183;SDS011;4133;48.752;9.088;2023-01-24T04:03:38;23.97;;;13.73;;
8183;SDS011;4133;48.752;9.088;2023-01-24T04:06:05;20.43;;;12.63;;
8183;SDS011;4133;48.752;9.088;2023-01-24T04:08:31;20.17;;;13.53;;
8183;SDS011;4133;48.752;9.088;2023-01-24T04:10:57;22.03;;;13.73;;
8183;SDS011;4133;48.752;9.088;2023-01-24T04:13:23;20.47;;;13.03;;
8183;SDS011;4133;48.752;9.088;2023-01-24T04:15:49;19.10;;;12.30;;
8183;SDS011;4133;48.752;9.088;2023-01-24T04:18:15;21.23;;;13.87;;
8183;SDS011;4133;48.752;9.088;2023-01-24T04:20:41;19.17;;;12.73;;
8183;SDS011;4133;48.752;9.088;2023-01-24T04:23:07;20.97;;;13.27;;
8183;SDS011;4133;48.752;9.088;2023-01-24T04:25:33;18.17;;;12.37;;
8183;SDS011;4133;48.752;9.088;2023-01-24T04:28:00;20.70;;;13.37;;
8183;SDS011;4133;48.752;9.088;2023-01-24T04:30:26;19.53;;;13.03;;
8183;SDS011;4133;48.752;9.088;2023-01-24T04:32:52;20.37;;;12.67;;
8183;SDS011;4133;48.752;9.088;2023-01-24T04:35:19;19.77;;;12.87;;
8183;SDS011;4133;48.752;9.088;2023-01-24T04:40:56;19.60;;;12.30;;
8183;SDS011;4133;48.752;9.088;2023-01-24T04:43:22;18.30;;;12.50;;
8183;SDS011;4133;48.752;9.088;2023-01-24T04:45:48;18.30;;;12.13;;
8183;SDS011;4133;48.752;9.088;2023-01-24T04:48:14;20.10;;;12.10;;
8183;SDS011;4133;48.752;9.088;2023-01-24T04:50:40;20.07;;;12.47;;
8183;SDS011;4133;48.752;9.088;2023-01-24T04:53:06;19.93;;;11.73;;
8183;SDS011;4133;48.752;9.088;2023-01-24T04:55:32;19.23;;;12.20;;
8183;SDS011;4133;48.752;9.088;2023-01-24T04:58:00;17.17;;;11.77;;
8183;SDS011;4133;48.752;9.088;2023-01-24T05:00:26;18.13;;;12.40;;
8183;SDS011;4133;48.752;9.088;2023-01-24T05:02:52;18.97;;;12.00;;
8183;SDS011;4133;48.752;9.088;2023-01-24T05:05:18;19.90;;;12.77;;
8183;SDS011;4133;48.752;9.088;2023-01-24T05:07:44;19.07;;;12.63;;
8183;SDS011;4133;48.752;9.088;2023-01-24T05:10:10;19.47;;;12.40;;
8183;SDS011;4133;48.752;9.088;2023-01-24T05:12:36;20.67;;;13.10;;
8183;SDS011;4133;48.752;9.088;2023-01-24T05:15:02;19.50;;;12.80;;
8183;SDS011;4133;48.752;9.088;2023-01-24T05:17:28;19.67;;;12.40;;
8183;SDS011;4133;48.752;9.088;2023-01-24T05:19:54;20.00;;;12.73;;
8183;SDS011;4133;48.752;9.088;2023-01-24T05:22:20;19.40;;;12.13;;
8183;SDS011;4133;48.752;9.088;2023-01-24T05:24:46;19.07;;;12.63;;
8183;SDS011;4133;48.752;9.088;2023-01-24T05:27:12;18.67;;;11.93;;
8183;SDS011;4133;48.752;9.088;2023-01-24T05:29:38;18.63;;;12.60;;
8183;SDS011;4133;48.752;9.088;2023-01-24T05:32:04;18.80;;;13.37;;
8183;SDS011;4133;48.752;9.088;2023-01-24T05:34:30;21.00;;;12.73;;
8183;SDS011;4133;48.752;9.088;2023-01-24T05:37:07;19.60;;;12.17;;
8183;SDS011;4133;48.752;9.088;2023-01-24T05:39:33;18.60;;;12.60;;
8183;SDS011;4133;48.752;9.088;2023-01-24T05:41:59;19.13;;;12.67;;
8183;SDS011;4133;48.752;9.088;2023-01-24T05:44:25;21.43;;;12.63;;
8183;SDS011;4133;48.752;9.088;2023-01-24T05:46:51;19.40;;;13.20;;
8183;SDS011;4133;48.752;9.088;2023-01-24T05:49:17;20.10;;;12.53;;
8183;SDS011;4133;48.752;9.088;2023-01-24T05:51:43;22.03;;;13.40;;
8183;SDS011;4133;48.752;9.088;2023-01-24T05:54:09;22.07;;;13.87;;
8183;SDS011;4133;48.752;9.088;2023-01-24T05:56:35;19.90;;;12.97;;
8183;SDS011;4133;48.752;9.088;2023-01-24T05:59:01;22.27;;;13.53;;
8183;SDS011;4133;48.752;9.088;2023-01-24T06:01:28;19.37;;;12.90;;
8183;SDS011;4133;48.752;9.088;2023-01-24T06:03:54;21.33;;;13.80;;
8183;SDS011;4133;48.752;9.088;2023-01-24T06:06:21;21.30;;;12.93;;
8183;SDS011;4133;48.752;9.088;2023-01-24T06:08:47;22.77;;;14.00;;
8183;SDS011;4133;48.752;9.088;2023-01-24T06:11:20;22.77;;;13.30;;
8183;SDS011;4133;48.752;9.088;2023-01-24T06:13:47;20.40;;;13.43;;
8183;SDS011;4133;48.752;9.088;2023-01-24T06:16:14;22.00;;;13.53;;
8183;SDS011;4133;48.752;9.088;2023-01-24T06:18:40;21.50;;;13.87;;
8183;SDS011;4133;48.752;9.088;2023-01-24T06:23:32;23.70;;;14.13;;
8183;SDS011;4133;48.752;9.088;2023-01-24T06:25:58;22.07;;;13.27;;
8183;SDS011;4133;48.752;9.088;2023-01-24T06:28:25;21.53;;;13.40;;
8183;SDS011;4133;48.752;9.088;2023-01-24T06:30:54;22.63;;;13.70;;
8183;SDS011;4133;48.752;9.088;2023-01-24T06:33:37;24.60;;;13.77;;
8183;SDS011;4133;48.752;9.088;2023-01-24T06:38:35;22.83;;;13.67;;
8183;SDS011;4133;48.752;9.088;2023-01-24T06:41:02;25.27;;;14.43;;
8183;SDS011;4133;48.752;9.088;2023-01-24T06:43:28;24.20;;;14.87;;
8183;SDS011;4133;48.752;9.088;2023-01-24T06:45:54;23.37;;;14.07;;
8183;SDS011;4133;48.752;9.088;2023-01-24T06:48:20;21.13;;;13.90;;
8183;SDS011;4133;48.752;9.088;2023-01-24T06:50:46;22.40;;;14.13;;
8183;SDS011;4133;48.752;9.088;2023-01-24T06:53:13;23.77;;;14.60;;
8183;SDS011;4133;48.752;9.088;2023-01-24T06:55:39;25.00;;;14.13;;
8183;SDS011;4133;48.752;9.088;2023-01-24T06:58:05;23.80;;;14.93;;
8183;SDS011;4133;48.752;9.088;2023-01-24T07:00:31;22.50;;;14.20;;
8183;SDS011;4133;48.752;9.088;2023-01-24T07:02:58;24.67;;;14.83;;
8183;SDS011;4133;48.752;9.088;2023-01-24T07:05:25;23.77;;;15.60;;
8183;SDS011;4133;48.752;9.088;2023-01-24T07:07:51;26.07;;;15.70;;
8183;SDS011;4133;48.752;9.088;2023-01-24T07:10:17;23.23;;;14.33;;
8183;SDS011;4133;48.752;9.088;2023-01-24T07:12:43;26.90;;;15.73;;
8183;SDS011;4133;48.752;9.088;2023-01-24T07:15:09;26.00;;;15.87;;
8183;SDS011;4133;48.752;9.088;2023-01-24T07:17:35;23.43;;;15.20;;
8183;SDS011;4133;48.752;9.088;2023-01-24T07:20:01;26.07;;;15.57;;
8183;SDS011;4133;48.752;9.088;2023-01-24T07:22:27;24.33;;;14.43;;
8183;SDS011;4133;48.752;9.088;2023-01-24T07:24:54;24.63;;;15.23;;
8183;SDS011;4133;48.752;9.088;2023-01-24T07:27:20;26.17;;;15.33;;
8183;SDS011;4133;48.752;9.088;2023-01-24T07:29:46;25.80;;;15.03;;
8183;SDS011;4133;48.752;9.088;2023-01-24T07:32:12;29.00;;;15.17;;
8183;SDS011;4133;48.752;9.088;2023-01-24T07:34:38;24.57;;;15.30;;
8183;SDS011;4133;48.752;9.088;2023-01-24T07:37:07;24.90;;;14.43;;
8183;SDS011;4133;48.752;9.088;2023-01-24T07:39:33;23.03;;;14.60;;
8183;SDS011;4133;48.752;9.088;2023-01-24T07:41:59;23.43;;;14.40;;
8183;SDS011;4133;48.752;9.088;2023-01-24T07:44:25;23.77;;;14.03;;
8183;SDS011;4133;48.752;9.088;2023-01-24T07:46:51;24.23;;;14.17;;
8183;SDS011;4133;48.752;9.088;2023-01-24T07:49:17;23.17;;;14.13;;
8183;SDS011;4133;48.752;9.088;2023-01-24T07:51:43;21.27;;;14.00;;
8183;SDS011;4133;48.752;9.088;2023-01-24T07:54:10;24.00;;;14.37;;
8183;SDS011;4133;48.752;9.088;2023-01-24T07:56:36;21.13;;;13.37;;
8183;SDS011;4133;48.752;9.088;2023-01-24T07:59:02;24.13;;;13.80;;
8183;SDS011;4133;48.752;9.088;2023-01-24T08:01:29;26.63;;;14.70;;
8183;SDS011;4133;48.752;9.088;2023-01-24T08:03:55;22.90;;;13.83;;
8183;SDS011;4133;48.752;9.088;2023-01-24T08:06:22;23.97;;;13.93;;
8183;SDS011;4133;48.752;9.088;2023-01-24T08:08:48;23.77;;;13.63;;
8183;SDS011;4133;48.752;9.088;2023-01-24T08:11:14;21.63;;;13.73;;
8183;SDS011;4133;48.752;9.088;2023-01-24T08:13:42;21.63;;;13.73;;
8183;SDS011;4133;48.752;9.088;2023-01-24T08:16:08;24.87;;;13.97;;
8183;SDS011;4133;48.752;9.088;2023-01-24T08:18:36;22.70;;;13.53;;
8183;SDS011;4133;48.752;9.088;2023-01-24T08:21:02;22.33;;;13.30;;
8183;SDS011;4133;48.752;9.088;2023-01-24T08:23:29;19.70;;;12.43;;
8183;SDS011;4133;48.752;9.088;2023-01-24T08:25:58;21.47;;;12.57;;
8183;SDS011;4133;48.752;9.088;2023-01-24T08:28:24;20.27;;;13.07;;
8183;SDS011;4133;48.752;9.088;2023-01-24T08:30:50;24.67;;;17.17;;
8183;SDS011;4133;48.752;9.088;2023-01-24T08:33:16;20.37;;;13.50;;
8183;SDS011;4133;48.752;9.088;2023-01-24T08:35:44;20.83;;;12.97;;
8183;SDS011;4133;48.752;9.088;2023-01-24T08:38:11;21.33;;;12.57;;
8183;SDS011;4133;48.752;9.088;2023-01-24T08:40:37;18.40;;;12.30;;
8183;SDS011;4133;48.752;9.088;2023-01-24T08:43:03;20.00;;;12.30;;
8183;SDS011;4133;48.752;9.088;2023-01-24T08:45:30;21.70;;;13.03;;
8183;SDS011;4133;48.752;9.088;2023-01-24T08:48:01;22.20;;;14.70;;
8183;SDS011;4133;48.752;9.088;2023-01-24T08:50:28;21.80;;;13.17;;
8183;SDS011;4133;48.752;9.088;2023-01-24T08:52:55;20.37;;;12.87;;
8183;SDS011;4133;48.752;9.088;2023-01-24T08:55:21;21.30;;;12.63;;
8183;SDS011;4133;48.752;9.088;2023-01-24T08:57:47;18.10;;;11.60;;
8183;SDS011;4133;48.752;9.088;2023-01-24T09:00:13;20.67;;;13.17;;
8183;SDS011;4133;48.752;9.088;2023-01-24T09:02:39;19.53;;;12.10;;
8183;SDS011;4133;48.752;9.088;2023-01-24T09:05:06;20.63;;;12.70;;
8183;SDS011;4133;48.752;9.088;2023-01-24T09:07:32;20.97;;;12.73;;
8183;SDS011;4133;48.752;9.088;2023-01-24T09:10:04;21.67;;;13.37;;
8183;SDS011;4133;48.752;9.088;2023-01-24T09:12:31;23.13;;;13.27;;
8183;SDS011;4133;48.752;9.088;2023-01-24T09:14:57;24.97;;;13.53;;
8183;SDS011;4133;48.752;9.088;2023-01-24T09:17:23;23.73;;;14.10;;
8183;SDS011;4133;48.752;9.088;2023-01-24T09:19:49;25.63;;;13.37;;
8183;SDS011;4133;48.752;9.088;2023-01-24T09:22:15;22.83;;;13.20;;
8183;SDS011;4133;48.752;9.088;2023-01-24T09:24:41;20.83;;;13.10;;
8183;SDS011;4133;48.752;9.088;2023-01-24T09:27:10;22.07;;;13.13;;
8183;SDS011;4133;48.752;9.088;2023-01-24T09:29:36;20.87;;;13.07;;
8183;SDS011;4133;48.752;9.088;2023-01-24T09:32:02;23.17;;;13.00;;
8183;SDS011;4133;48.752;9.088;2023-01-24T09:34:28;22.47;;;13.30;;
8183;SDS011;4133;48.752;9.088;2023-01-24T09:36:54;19.90;;;13.70;;
8183;SDS011;4133;48.752;9.088;2023-01-24T09:39:20;20.47;;;12.73;;
8183;SDS011;4133;48.752;9.088;2023-01-24T09:42:01;22.20;;;13.60;;
8183;SDS011;4133;48.752;9.088;2023-01-24T09:49:58;21.27;;;12.83;;
8183;SDS011;4133;48.752;9.088;2023-01-24T09:52:40;19.63;;;12.93;;
8183;SDS011;4133;48.752;9.088;2023-01-24T09:57:56;21.03;;;13.03;;
8183;SDS011;4133;48.752;9.088;2023-01-24T10:00:26;19.40;;;13.47;;
8183;SDS011;4133;48.752;9.088;2023-01-24T10:02:53;19.03;;;13.07;;
8183;SDS011;4133;48.752;9.088;2023-01-24T10:05:34;22.63;;;13.43;;
8183;SDS011;4133;48.752;9.088;2023-01-24T10:10:45;21.97;;;12.30;;
8183;SDS011;4133;48.752;9.088;2023-01-24T10:15:48;19.27;;;12.97;;
8183;SDS011;4133;48.752;9.088;2023-01-24T10:18:20;19.67;;;12.40;;
8183;SDS011;4133;48.752;9.088;2023-01-24T10:23:32;18.70;;;12.87;;
8183;SDS011;4133;48.752;9.088;2023-01-24T10:26:34;18.77;;;12.27;;
8183;SDS011;4133;48.752;9.088;2023-01-24T10:28:55;18.13;;;11.43;;
8183;SDS011;4133;48.752;9.088;2023-01-24T10:31:34;17.90;;;11.90;;
8183;SDS011;4133;48.752;9.088;2023-01-24T10:34:08;20.73;;;11.83;;
8183;SDS011;4133;48.752;9.088;2023-01-24T10:39:11;18.83;;;11.23;;
8183;SDS011;4133;48.752;9.088;2023-01-24T10:41:38;17.70;;;11.50;;
8183;SDS011;4133;48.752;9.088;2023-01-24T10:52:16;16.73;;;9.87;;
8183;SDS011;4133;48.752;9.088;2023-01-24T10:54:50;13.80;;;9.80;;
8183;SDS011;4133;48.752;9.088;2023-01-24T10:59:50;13.80;;;10.00;;
8183;SDS011;4133;48.752;9.088;2023-01-24T11:02:20;14.13;;;10.17;;
8183;SDS011;4133;48.752;9.088;2023-01-24T11:04:47;14.47;;;10.90;;
8183;SDS011;4133;48.752;9.088;2023-01-24T11:07:28;16.23;;;10.60;;
8183;SDS011;4133;48.752;9.088;2023-01-24T11:09:58;13.33;;;9.60;;
8183;SDS011;4133;48.752;9.088;2023-01-24T12:20:47;15.73;;;12.25;;
8183;SDS011;4133;48.752;9.088;2023-01-24T12:23:18;15.30;;;11.30;;
8183;SDS011;4133;48.752;9.088;2023-01-24T12:25:46;15.65;;;12.57;;
8183;SDS011;4133;48.752;9.088;2023-01-24T12:28:16;15.80;;;11.07;;
8183;SDS011;4133;48.752;9.088;2023-01-24T12:30:53;15.52;;;10.32;;
8183;SDS011;4133;48.752;9.088;2023-01-24T12:33:27;12.63;;;9.10;;
8183;SDS011;4133;48.752;9.088;2023-01-24T12:36:40;13.40;;;9.50;;
8183;SDS011;4133;48.752;9.088;2023-01-24T12:38:46;13.03;;;8.80;;
8183;SDS011;4133;48.752;9.088;2023-01-24T12:54:58;12.83;;;8.67;;
8183;SDS011;4133;48.752;9.088;2023-01-24T12:59:55;12.43;;;8.60;;
8183;SDS011;4133;48.752;9.088;2023-01-24T13:02:37;14.47;;;8.77;;
8183;SDS011;4133;48.752;9.088;2023-01-24T13:12:35;12.37;;;8.23;;
8183;SDS011;4133;48.752;9.088;2023-01-24T13:15:03;9.60;;;7.40;;
8183;SDS011;4133;48.752;9.088;2023-01-24T13:25:05;10.13;;;7.57;;
8183;SDS011;4133;48.752;9.088;2023-01-24T13:32:39;11.47;;;8.10;;
8183;SDS011;4133;48.752;9.088;2023-01-24T13:37:41;9.73;;;7.07;;
8183;SDS011;4133;48.752;9.088;2023-01-24T13:42:39;15.77;;;9.00;;
8183;SDS011;4133;48.752;9.088;2023-01-24T13:48:00;12.67;;;8.23;;
8183;SDS011;4133;48.752;9.088;2023-01-24T13:50:29;11.97;;;8.23;;
8183;SDS011;4133;48.752;9.088;2023-01-24T13:52:56;10.63;;;7.63;;
8183;SDS011;4133;48.752;9.088;2023-01-24T14:00:56;11.57;;;7.93;;
8183;SDS011;4133;48.752;9.088;2023-01-24T14:03:29;12.90;;;8.43;;
8183;SDS011;4133;48.752;9.088;2023-01-24T14:06:03;10.93;;;8.33;;
8183;SDS011;4133;48.752;9.088;2023-01-24T14:16:13;11.73;;;8.33;;
8183;SDS011;4133;48.752;9.088;2023-01-24T14:19:04;10.77;;;8.13;;
8183;SDS011;4133;48.752;9.088;2023-01-24T14:24:24;13.27;;;8.43;;
8183;SDS011;4133;48.752;9.088;2023-01-24T14:26:52;13.23;;;8.03;;
8183;SDS011;4133;48.752;9.088;2023-01-24T14:29:19;14.30;;;8.37;;
8183;SDS011;4133;48.752;9.088;2023-01-24T14:31:46;11.67;;;8.27;;
8183;SDS011;4133;48.752;9.088;2023-01-24T14:37:02;12.57;;;7.93;;
8183;SDS011;4133;48.752;9.088;2023-01-24T14:39:28;12.87;;;8.13;;
8183;SDS011;4133;48.752;9.088;2023-01-24T14:41:56;12.80;;;7.77;;
8183;SDS011;4133;48.752;9.088;2023-01-24T14:44:22;10.23;;;7.80;;
8183;SDS011;4133;48.752;9.088;2023-01-24T14:49:24;11.17;;;7.93;;
8183;SDS011;4133;48.752;9.088;2023-01-24T14:51:51;13.70;;;8.37;;
8183;SDS011;4133;48.752;9.088;2023-01-24T14:54:21;12.43;;;8.83;;
8183;SDS011;4133;48.752;9.088;2023-01-24T14:56:47;12.33;;;8.13;;
8183;SDS011;4133;48.752;9.088;2023-01-24T14:59:15;12.27;;;8.13;;
8183;SDS011;4133;48.752;9.088;2023-01-24T15:01:43;11.57;;;8.13;;
8183;SDS011;4133;48.752;9.088;2023-01-24T15:06:46;12.80;;;8.43;;
8183;SDS011;4133;48.752;9.088;2023-01-24T15:09:27;14.47;;;8.47;;
8183;SDS011;4133;48.752;9.088;2023-01-24T15:11:53;12.27;;;8.47;;
8183;SDS011;4133;48.752;9.088;2023-01-24T15:14:19;11.30;;;8.20;;
8183;SDS011;4133;48.752;9.088;2023-01-24T15:16:47;11.50;;;7.63;;
8183;SDS011;4133;48.752;9.088;2023-01-24T15:19:17;10.40;;;7.87;;
8183;SDS011;4133;48.752;9.088;2023-01-24T15:21:45;12.93;;;8.07;;
8183;SDS011;4133;48.752;9.088;2023-01-24T15:26:43;11.87;;;7.83;;
8183;SDS011;4133;48.752;9.088;2023-01-24T15:31:56;13.23;;;8.77;;
8183;SDS011;4133;48.752;9.088;2023-01-24T15:34:22;13.93;;;8.50;;
8183;SDS011;4133;48.752;9.088;2023-01-24T15:36:55;12.37;;;8.30;;
8183;SDS011;4133;48.752;9.088;2023-01-24T15:39:21;12.47;;;8.70;;
8183;SDS011;4133;48.752;9.088;2023-01-24T15:41:47;10.70;;;8.07;;
8183;SDS011;4133;48.752;9.088;2023-01-24T15:44:32;14.60;;;8.63;;
8183;SDS011;4133;48.752;9.088;2023-01-24T15:46:58;12.67;;;8.47;;
8183;SDS011;4133;48.752;9.088;2023-01-24T15:49:56;14.43;;;9.23;;
8183;SDS011;4133;48.752;9.088;2023-01-24T15:52:22;15.43;;;9.33;;
8183;SDS011;4133;48.752;9.088;2023-01-24T15:54:55;14.00;;;9.50;;
8183;SDS011;4133;48.752;9.088;2023-01-24T15:59:55;15.23;;;9.43;;
8183;SDS011;4133;48.752;9.088;2023-01-24T16:02:22;12.77;;;8.90;;
8183;SDS011;4133;48.752;9.088;2023-01-24T16:04:48;14.03;;;9.13;;
8183;SDS011;4133;48.752;9.088;2023-01-24T16:07:15;13.43;;;9.03;;
8183;SDS011;4133;48.752;9.088;2023-01-24T16:09:43;14.80;;;9.53;;
8183;SDS011;4133;48.752;9.088;2023-01-24T16:12:11;13.63;;;8.90;;
8183;SDS011;4133;48.752;9.088;2023-01-24T16:14:39;12.73;;;9.43;;
8183;SDS011;4133;48.752;9.088;2023-01-24T16:17:08;14.23;;;9.17;;
8183;SDS011;4133;48.752;9.088;2023-01-24T16:19:35;13.67;;;9.27;;
8183;SDS011;4133;48.752;9.088;2023-01-24T16:22:01;14.17;;;9.97;;
8183;SDS011;4133;48.752;9.088;2023-01-24T16:24:28;13.87;;;9.77;;
8183;SDS011;4133;48.752;9.088;2023-01-24T16:26:54;17.20;;;10.10;;
8183;SDS011;4133;48.752;9.088;2023-01-24T16:29:22;17.70;;;9.50;;
8183;SDS011;4133;48.752;9.088;2023-01-24T16:31:48;13.07;;;9.63;;
8183;SDS011;4133;48.752;9.088;2023-01-24T16:34:14;15.27;;;9.73;;
8183;SDS011;4133;48.752;9.088;2023-01-24T16:36:42;17.13;;;10.03;;
8183;SDS011;4133;48.752;9.088;2023-01-24T16:39:09;13.70;;;9.73;;
8183;SDS011;4133;48.752;9.088;2023-01-24T16:41:38;14.10;;;9.67;;
8183;SDS011;4133;48.752;9.088;2023-01-24T16:44:07;16.60;;;10.33;;
8183;SDS011;4133;48.752;9.088;2023-01-24T16:46:33;16.20;;;10.30;;
8183;SDS011;4133;48.752;9.088;2023-01-24T16:49:01;18.17;;;11.37;;
8183;SDS011;4133;48.752;9.088;2023-01-24T16:51:27;16.50;;;10.60;;
8183;SDS011;4133;48.752;9.088;2023-01-24T16:53:54;18.20;;;11.50;;
8183;SDS011;4133;48.752;9.088;2023-01-24T16:56:20;16.50;;;10.93;;
8183;SDS011;4133;48.752;9.088;2023-01-24T16:58:46;17.47;;;11.27;;
8183;SDS011;4133;48.752;9.088;2023-01-24T17:01:12;17.33;;;11.13;;
8183;SDS011;4133;48.752;9.088;2023-01-24T17:03:38;16.80;;;11.60;;
8183;SDS011;4133;48.752;9.088;2023-01-24T17:06:08;16.13;;;10.47;;
8183;SDS011;4133;48.752;9.088;2023-01-24T17:08:55;16.93;;;11.20;;
8183;SDS011;4133;48.752;9.088;2023-01-24T17:11:20;15.50;;;10.73;;
8183;SDS011;4133;48.752;9.088;2023-01-24T17:13:49;15.97;;;10.60;;
8183;SDS011;4133;48.752;9.088;2023-01-24T17:16:16;19.70;;;11.87;;
8183;SDS011;4133;48.752;9.088;2023-01-24T17:18:42;17.17;;;11.03;;
8183;SDS011;4133;48.752;9.088;2023-01-24T17:21:09;17.10;;;11.50;;
8183;SDS011;4133;48.752;9.088;2023-01-24T17:23:36;18.13;;;11.00;;
8183;SDS011;4133;48.752;9.088;2023-01-24T17:26:13;19.07;;;12.40;;
8183;SDS011;4133;48.752;9.088;2023-01-24T17:28:39;19.90;;;13.50;;
8183;SDS011;4133;48.752;9.088;2023-01-24T17:31:06;22.23;;;15.00;;
8183;SDS011;4133;48.752;9.088;2023-01-24T17:33:32;19.53;;;12.93;;
8183;SDS011;4133;48.752;9.088;2023-01-24T17:35:58;22.63;;;13.27;;
8183;SDS011;4133;48.752;9.088;2023-01-24T17:38:27;20.83;;;13.90;;
8183;SDS011;4133;48.752;9.088;2023-01-24T17:40:54;35.70;;;23.80;;
8183;SDS011;4133;48.752;9.088;2023-01-24T17:43:20;24.50;;;15.27;;
8183;SDS011;4133;48.752;9.088;2023-01-24T17:45:50;23.30;;;15.13;;
8183;SDS011;4133;48.752;9.088;2023-01-24T17:50:50;22.37;;;14.10;;
8183;SDS011;4133;48.752;9.088;2023-01-24T17:53:17;32.67;;;21.53;;
8183;SDS011;4133;48.752;9.088;2023-01-24T17:55:43;21.17;;;14.47;;
8183;SDS011;4133;48.752;9.088;2023-01-24T17:58:09;22.87;;;14.00;;
8183;SDS011;4133;48.752;9.088;2023-01-24T18:00:36;26.57;;;14.60;;
8183;SDS011;4133;48.752;9.088;2023-01-24T18:03:02;23.23;;;14.77;;
8183;SDS011;4133;48.752;9.088;2023-01-24T18:05:29;26.03;;;16.50;;
8183;SDS011;4133;48.752;9.088;2023-01-24T18:07:55;28.50;;;16.97;;
8183;SDS011;4133;48.752;9.088;2023-01-24T18:10:21;25.07;;;16.70;;
8183;SDS011;4133;48.752;9.088;2023-01-24T18:12:50;22.23;;;14.50;;
8183;SDS011;4133;48.752;9.088;2023-01-24T18:15:16;28.75;;;18.40;;
8183;SDS011;4133;48.752;9.088;2023-01-24T18:17:42;25.20;;;17.27;;
8183;SDS011;4133;48.752;9.088;2023-01-24T18:20:08;38.77;;;23.03;;
8183;SDS011;4133;48.752;9.088;2023-01-24T18:22:39;38.57;;;26.67;;